createdAt,value
2019-01-21T00:01:26.419Z,8.02
2019-01-21T00:06:29.055Z,8.07
2019-01-21T00:11:31.738Z,8.01
2019-01-21T00:16:34.438Z,8.17
2019-01-21T00:21:37.038Z,8.17
2019-01-21T00:26:39.638Z,8.17
2019-01-21T00:31:42.199Z,8.21
2019-01-21T00:36:44.779Z,8.07
2019-01-21T00:41:48.498Z,8.03
2019-01-21T00:46:51.157Z,7.96
2019-01-21T00:51:53.924Z,8.06
2019-01-21T00:56:56.561Z,7.83
2019-01-21T01:01:59.036Z,7.84
2019-01-21T01:07:01.676Z,7.96
2019-01-21T01:12:04.578Z,8.01
2019-01-21T01:17:07.149Z,7.89
2019-01-21T01:22:09.577Z,7.93
2019-01-21T01:27:11.946Z,7.86
2019-01-21T01:32:14.447Z,7.89
2019-01-21T01:37:16.898Z,7.71
2019-01-21T01:42:20.406Z,7.65
2019-01-21T01:47:22.982Z,7.66
2019-01-21T01:52:25.588Z,7.73
2019-01-21T01:57:28.138Z,7.73
2019-01-21T02:02:30.678Z,7.84
2019-01-21T02:07:33.269Z,7.91
2019-01-21T02:12:45.449Z,7.76
2019-01-21T02:17:51.996Z,7.63
2019-01-21T02:22:57.499Z,7.71
2019-01-21T02:28:18.184Z,7.71
2019-01-21T02:33:44.301Z,7.58
2019-01-21T02:38:59.414Z,7.35
2019-01-21T02:44:20.337Z,7.22
2019-01-21T02:49:52.527Z,6.83
2019-01-21T02:55:19.089Z,6.24
2019-01-21T03:00:34.028Z,5.82
2019-01-21T03:05:50.196Z,5.48
2019-01-21T03:11:05.436Z,5.20
2019-01-21T03:16:24.691Z,4.77
2019-01-21T03:21:49.168Z,4.68
2019-01-21T03:26:56.621Z,4.74
2019-01-21T03:32:17.938Z,4.84
2019-01-21T03:37:49.247Z,4.95
2019-01-21T03:42:58.667Z,5.16
2019-01-21T03:53:51.200Z,5.37
2019-01-21T03:59:13.152Z,5.26
2019-01-21T04:04:44.183Z,5.25
2019-01-21T04:09:59.009Z,5.46
2019-01-21T04:15:16.092Z,5.79
2019-01-21T04:20:33.204Z,6.16
2019-01-21T04:25:49.178Z,6.41
2019-01-21T04:31:10.188Z,6.35
2019-01-21T04:36:51.513Z,6.63
2019-01-21T04:42:07.129Z,6.81
2019-01-21T04:47:25.294Z,6.78
2019-01-21T04:52:43.244Z,7.06
2019-01-21T04:58:11.343Z,6.99
2019-01-21T05:03:35.083Z,7.01
2019-01-21T05:08:54.254Z,7.14
2019-01-21T05:14:11.137Z,7.37
2019-01-21T05:19:32.258Z,7.41
2019-01-21T05:24:49.229Z,7.33
2019-01-21T05:30:12.432Z,6.84
2019-01-21T05:35:41.563Z,6.60
2019-01-21T05:40:57.080Z,6.54
2019-01-21T05:46:26.395Z,6.77
2019-01-21T05:51:52.104Z,7.01
2019-01-21T05:57:13.263Z,7.23
2019-01-21T06:02:39.478Z,7.30
2019-01-21T06:08:00.269Z,7.37
2019-01-21T06:13:16.467Z,7.22
2019-01-21T06:18:34.194Z,6.81
2019-01-21T06:23:48.533Z,6.35
2019-01-21T06:29:06.137Z,6.15
2019-01-21T06:34:37.123Z,6.13
2019-01-21T06:40:05.263Z,6.41
2019-01-21T06:45:25.214Z,6.49
2019-01-21T06:50:47.302Z,6.28
2019-01-21T06:56:12.288Z,5.88
2019-01-21T07:01:34.218Z,5.92
2019-01-21T07:06:53.049Z,5.90
2019-01-21T07:12:05.808Z,5.87
2019-01-21T07:34:04.140Z,6.34
2019-01-21T07:39:35.158Z,6.44
2019-01-21T07:44:54.757Z,6.61
2019-01-21T07:50:11.289Z,6.80
2019-01-21T07:55:27.660Z,6.86
2019-01-21T08:00:42.526Z,6.92
2019-01-21T08:05:57.546Z,6.83
2019-01-21T08:11:15.672Z,6.53
2019-01-21T08:16:32.747Z,6.28
2019-01-21T08:22:00.099Z,5.99
2019-01-21T08:27:18.580Z,5.67
2019-01-21T08:32:33.306Z,5.36
2019-01-21T08:37:58.286Z,5.31
2019-01-21T08:43:22.655Z,5.62
2019-01-21T08:48:43.101Z,5.86
2019-01-21T08:54:04.196Z,6.37
2019-01-21T08:59:13.855Z,7.20
2019-01-21T09:04:36.426Z,7.69
2019-01-21T09:09:59.454Z,8.09
2019-01-21T09:15:14.798Z,8.49
2019-01-21T09:20:34.694Z,8.78
2019-01-21T09:25:53.445Z,9.35
2019-01-21T09:31:14.147Z,10.09
2019-01-21T09:36:40.896Z,10.65
2019-01-21T09:41:52.521Z,10.62
2019-01-21T09:46:53.946Z,11.64
2019-01-21T09:52:09.238Z,11.11
2019-01-21T09:57:22.202Z,10.67
2019-01-21T10:02:34.862Z,10.08
2019-01-21T10:08:02.934Z,10.09
2019-01-21T10:13:29.307Z,11.01
2019-01-21T10:18:45.983Z,11.12
2019-01-21T10:24:02.198Z,10.89
2019-01-21T10:29:20.492Z,10.62
2019-01-21T10:34:46.122Z,10.71
2019-01-21T10:40:02.812Z,10.26
2019-01-21T10:45:23.177Z,9.94
2019-01-21T10:50:46.366Z,9.77
2019-01-21T10:56:02.835Z,9.72
2019-01-21T11:01:24.243Z,9.60
2019-01-21T11:06:45.011Z,9.69
2019-01-21T11:12:11.771Z,10.31
2019-01-21T11:17:28.186Z,11.26
2019-01-21T11:22:37.887Z,11.57
2019-01-21T11:27:53.377Z,11.53
2019-01-21T11:33:22.389Z,11.51
2019-01-21T11:38:38.277Z,11.31
2019-01-21T11:43:55.126Z,11.47
2019-01-21T11:49:13.196Z,11.52
2019-01-21T11:54:31.436Z,11.11
2019-01-21T11:59:44.177Z,10.20
2019-01-21T12:04:56.413Z,9.41
2019-01-21T12:10:28.952Z,8.83
2019-01-21T12:15:49.534Z,8.70
2019-01-21T12:21:10.270Z,8.86
2019-01-21T12:26:25.878Z,8.77
2019-01-21T12:31:43.165Z,8.83
2019-01-21T12:36:58.778Z,8.68
2019-01-21T12:42:14.821Z,8.79
2019-01-21T12:47:34.136Z,9.20
2019-01-21T12:52:51.291Z,9.83
2019-01-21T12:58:14.122Z,9.83
2019-01-21T13:03:32.206Z,9.52
2019-01-21T13:08:47.416Z,9.42
2019-01-21T13:13:59.165Z,9.13
2019-01-21T13:19:24.877Z,9.06
2019-01-21T13:24:40.075Z,8.92
2019-01-21T13:30:08.151Z,8.78
2019-01-21T13:35:36.183Z,8.73
2019-01-21T13:41:01.037Z,8.72
2019-01-21T13:46:31.417Z,9.00
2019-01-21T13:51:49.266Z,9.18
2019-01-21T13:57:09.358Z,8.92
2019-01-21T14:02:21.023Z,8.78
2019-01-21T14:07:42.221Z,8.68
2019-01-21T14:13:04.454Z,8.62
2019-01-21T14:18:26.374Z,8.65
2019-01-21T14:23:35.910Z,8.52
2019-01-21T14:28:56.738Z,8.39
2019-01-21T14:34:08.166Z,8.28
2019-01-21T14:39:19.615Z,8.16
2019-01-21T14:44:57.697Z,8.07
2019-01-21T14:50:11.798Z,8.10
2019-01-21T14:55:27.259Z,8.14
2019-01-21T15:00:46.431Z,8.05
2019-01-21T15:06:01.946Z,8.05
2019-01-21T15:11:26.037Z,8.04
2019-01-21T15:16:44.016Z,8.04
2019-01-21T15:22:09.628Z,7.95
2019-01-21T15:27:27.343Z,7.82
2019-01-21T15:32:46.517Z,7.83
2019-01-21T15:37:59.852Z,7.83
2019-01-21T15:43:33.609Z,7.95
2019-01-21T15:48:53.710Z,8.06
2019-01-21T15:54:01.164Z,8.09
2019-01-21T15:59:23.016Z,8.07
2019-01-21T16:04:39.362Z,8.07
2019-01-21T16:09:53.669Z,8.08
2019-01-21T16:15:05.719Z,8.04
2019-01-21T16:20:14.991Z,8.02
2019-01-21T16:25:32.819Z,8.06
2019-01-21T16:30:43.410Z,8.14
2019-01-21T16:36:09.093Z,8.08
2019-01-21T16:41:26.806Z,8.07
2019-01-21T16:46:29.452Z,8.06
2019-01-21T16:51:32.232Z,7.85
2019-01-21T16:56:34.967Z,7.69
2019-01-21T17:01:37.898Z,7.56
2019-01-21T17:06:40.580Z,7.34
2019-01-21T17:11:43.323Z,7.06
2019-01-21T17:16:45.952Z,6.97
2019-01-21T17:21:48.721Z,6.91
2019-01-21T17:26:51.453Z,6.91
2019-01-21T17:31:54.266Z,7.07
2019-01-21T17:36:57.186Z,7.28
2019-01-21T17:42:00.015Z,7.34
2019-01-21T17:47:02.552Z,7.26
2019-01-21T17:52:05.391Z,7.14
2019-01-21T17:57:07.926Z,7.13
2019-01-21T18:02:10.627Z,7.20
2019-01-21T18:07:13.491Z,7.28
2019-01-21T18:12:16.110Z,7.26
2019-01-21T18:17:18.963Z,7.27
2019-01-21T18:22:21.731Z,7.36
2019-01-21T18:27:24.646Z,7.40
2019-01-21T18:32:27.352Z,7.45
2019-01-21T18:37:30.091Z,7.56
2019-01-21T18:42:32.691Z,7.70
2019-01-21T18:47:35.250Z,7.57
2019-01-21T18:52:37.995Z,7.55
2019-01-21T18:57:40.618Z,7.55
2019-01-21T19:02:43.413Z,7.63
2019-01-21T19:07:46.038Z,7.67
2019-01-21T19:12:49.119Z,7.77
2019-01-21T19:17:52.992Z,7.85
2019-01-21T19:22:55.543Z,7.88
2019-01-21T19:27:58.085Z,7.89
2019-01-21T19:33:00.714Z,7.93
2019-01-21T19:38:04.618Z,7.88
2019-01-21T19:43:07.303Z,7.90
2019-01-21T19:48:09.873Z,7.74
2019-01-21T19:53:12.410Z,7.64
2019-01-21T19:58:15.159Z,7.62
2019-01-21T20:03:17.719Z,7.61
2019-01-21T20:08:21.493Z,7.62
2019-01-21T20:13:24.006Z,7.62
2019-01-21T20:18:26.569Z,7.57
2019-01-21T20:23:29.158Z,7.53
2019-01-21T20:28:31.634Z,7.52
2019-01-21T20:33:34.119Z,7.61
2019-01-21T20:38:36.744Z,7.54
2019-01-21T20:43:39.404Z,7.67
2019-01-21T20:48:41.921Z,7.79
2019-01-21T20:53:44.528Z,7.70
2019-01-21T20:58:47.458Z,7.43
2019-01-21T21:03:50.024Z,7.40
2019-01-21T21:08:52.662Z,7.48
2019-01-21T21:13:55.292Z,7.57
2019-01-21T21:18:57.729Z,7.47
2019-01-21T21:24:00.204Z,7.05
2019-01-21T21:29:02.779Z,6.58
2019-01-21T21:34:05.353Z,6.30
2019-01-21T21:39:08.058Z,6.20
2019-01-21T21:44:10.531Z,6.23
2019-01-21T21:49:13.074Z,6.03
2019-01-21T21:54:15.693Z,5.96
2019-01-21T21:59:18.338Z,5.99
2019-01-21T22:04:20.823Z,6.13
2019-01-21T22:09:23.394Z,6.25
2019-01-21T22:14:25.888Z,6.39
2019-01-21T22:19:28.365Z,6.49
2019-01-21T22:24:31.251Z,6.61
2019-01-21T22:29:33.858Z,6.24
2019-01-21T22:34:36.348Z,6.02
2019-01-21T22:39:38.993Z,5.86
2019-01-21T22:44:41.593Z,5.79
2019-01-21T22:49:44.239Z,5.61
2019-01-21T22:54:46.822Z,5.59
2019-01-21T22:59:49.329Z,5.62
2019-01-21T23:04:52.042Z,5.59
2019-01-21T23:09:54.589Z,5.49
2019-01-21T23:14:57.223Z,5.53
2019-01-21T23:20:00.069Z,5.51
2019-01-21T23:25:03.033Z,5.47
2019-01-21T23:30:08.008Z,5.46
2019-01-21T23:35:10.804Z,5.50
2019-01-21T23:40:13.858Z,5.53
2019-01-21T23:45:16.530Z,5.57
2019-01-21T23:50:19.229Z,5.72
2019-01-21T23:55:21.748Z,5.57
